sensor_id;sensor_type;location;lat;lon;timestamp;P1;durP1;ratioP1;P2;durP2;ratioP2
21202;SDS011;10759;51.982;9.232;2023-03-03T00:01:03;54.08;;;37.45;;
21202;SDS011;10759;51.982;9.232;2023-03-03T00:03:31;52.45;;;36.88;;
21202;SDS011;10759;51.982;9.232;2023-03-03T00:06:01;53.05;;;37.15;;
21202;SDS011;10759;51.982;9.232;2023-03-03T00:08:30;51.15;;;36.05;;
21202;SDS011;10759;51.982;9.232;2023-03-03T00:10:58;48.60;;;35.05;;
21202;SDS011;10759;51.982;9.232;2023-03-03T00:16:07;46.28;;;33.00;;
21202;SDS011;10759;51.982;9.232;2023-03-03T00:18:40;50.67;;;34.10;;
21202;SDS011;10759;51.982;9.232;2023-03-03T00:24:18;51.67;;;35.72;;
21202;SDS011;10759;51.982;9.232;2023-03-03T00:26:48;50.90;;;34.40;;
21202;SDS011;10759;51.982;9.232;2023-03-03T00:29:38;55.37;;;36.97;;
21202;SDS011;10759;51.982;9.232;2023-03-03T00:32:15;48.72;;;34.05;;
21202;SDS011;10759;51.982;9.232;2023-03-03T00:34:48;53.65;;;37.58;;
21202;SDS011;10759;51.982;9.232;2023-03-03T00:37:25;47.90;;;35.88;;
21202;SDS011;10759;51.982;9.232;2023-03-03T00:42:50;54.20;;;38.00;;
21202;SDS011;10759;51.982;9.232;2023-03-03T00:45:27;56.30;;;38.83;;
21202;SDS011;10759;51.982;9.232;2023-03-03T00:47:57;56.38;;;36.83;;
21202;SDS011;10759;51.982;9.232;2023-03-03T00:50:34;60.40;;;38.88;;
21202;SDS011;10759;51.982;9.232;2023-03-03T00:53:06;50.13;;;36.85;;
21202;SDS011;10759;51.982;9.232;2023-03-03T00:55:38;52.00;;;36.55;;
21202;SDS011;10759;51.982;9.232;2023-03-03T00:58:06;51.35;;;35.60;;
21202;SDS011;10759;51.982;9.232;2023-03-03T01:00:41;56.63;;;37.75;;
21202;SDS011;10759;51.982;9.232;2023-03-03T01:03:12;50.70;;;36.67;;
21202;SDS011;10759;51.982;9.232;2023-03-03T01:05:42;49.53;;;36.20;;
21202;SDS011;10759;51.982;9.232;2023-03-03T01:08:10;53.42;;;38.53;;
21202;SDS011;10759;51.982;9.232;2023-03-03T01:10:39;54.15;;;37.35;;
21202;SDS011;10759;51.982;9.232;2023-03-03T01:13:11;51.22;;;35.88;;
21202;SDS011;10759;51.982;9.232;2023-03-03T01:15:39;48.55;;;34.90;;
21202;SDS011;10759;51.982;9.232;2023-03-03T01:18:09;47.55;;;34.20;;
21202;SDS011;10759;51.982;9.232;2023-03-03T01:20:37;46.67;;;34.35;;
21202;SDS011;10759;51.982;9.232;2023-03-03T01:23:05;52.72;;;35.72;;
21202;SDS011;10759;51.982;9.232;2023-03-03T01:25:34;51.95;;;36.20;;
21202;SDS011;10759;51.982;9.232;2023-03-03T01:28:03;50.58;;;37.08;;
21202;SDS011;10759;51.982;9.232;2023-03-03T01:30:32;47.25;;;33.65;;
21202;SDS011;10759;51.982;9.232;2023-03-03T01:33:01;51.45;;;37.33;;
21202;SDS011;10759;51.982;9.232;2023-03-03T01:35:30;51.92;;;34.67;;
21202;SDS011;10759;51.982;9.232;2023-03-03T01:37:58;54.10;;;37.80;;
21202;SDS011;10759;51.982;9.232;2023-03-03T01:40:28;47.92;;;35.60;;
21202;SDS011;10759;51.982;9.232;2023-03-03T01:42:58;53.55;;;37.30;;
21202;SDS011;10759;51.982;9.232;2023-03-03T01:45:27;52.95;;;36.53;;
21202;SDS011;10759;51.982;9.232;2023-03-03T01:47:58;55.65;;;37.13;;
21202;SDS011;10759;51.982;9.232;2023-03-03T01:53:17;54.03;;;36.95;;
21202;SDS011;10759;51.982;9.232;2023-03-03T01:55:48;54.97;;;38.10;;
21202;SDS011;10759;51.982;9.232;2023-03-03T01:58:19;53.58;;;38.85;;
21202;SDS011;10759;51.982;9.232;2023-03-03T02:00:52;50.78;;;36.47;;
21202;SDS011;10759;51.982;9.232;2023-03-03T02:03:24;54.55;;;37.47;;
21202;SDS011;10759;51.982;9.232;2023-03-03T02:05:54;54.40;;;37.50;;
21202;SDS011;10759;51.982;9.232;2023-03-03T02:08:27;49.22;;;35.22;;
21202;SDS011;10759;51.982;9.232;2023-03-03T02:11:00;56.03;;;36.30;;
21202;SDS011;10759;51.982;9.232;2023-03-03T02:13:29;59.50;;;37.92;;
21202;SDS011;10759;51.982;9.232;2023-03-03T02:15:57;55.80;;;36.55;;
21202;SDS011;10759;51.982;9.232;2023-03-03T02:18:26;52.00;;;35.85;;
21202;SDS011;10759;51.982;9.232;2023-03-03T02:20:58;53.85;;;35.60;;
21202;SDS011;10759;51.982;9.232;2023-03-03T02:23:33;51.40;;;36.10;;
21202;SDS011;10759;51.982;9.232;2023-03-03T02:26:07;54.13;;;35.97;;
21202;SDS011;10759;51.982;9.232;2023-03-03T02:28:38;54.05;;;35.75;;
21202;SDS011;10759;51.982;9.232;2023-03-03T02:31:11;54.63;;;35.85;;
21202;SDS011;10759;51.982;9.232;2023-03-03T02:33:42;49.15;;;34.30;;
21202;SDS011;10759;51.982;9.232;2023-03-03T02:36:13;53.97;;;33.40;;
21202;SDS011;10759;51.982;9.232;2023-03-03T02:38:44;51.20;;;34.78;;
21202;SDS011;10759;51.982;9.232;2023-03-03T02:41:23;53.38;;;34.90;;
21202;SDS011;10759;51.982;9.232;2023-03-03T02:43:57;50.08;;;34.25;;
21202;SDS011;10759;51.982;9.232;2023-03-03T02:46:28;52.42;;;34.25;;
21202;SDS011;10759;51.982;9.232;2023-03-03T02:49:00;52.75;;;33.65;;
21202;SDS011;10759;51.982;9.232;2023-03-03T02:51:28;52.95;;;32.55;;
21202;SDS011;10759;51.982;9.232;2023-03-03T02:53:56;44.08;;;30.98;;
21202;SDS011;10759;51.982;9.232;2023-03-03T02:56:28;45.25;;;30.58;;
21202;SDS011;10759;51.982;9.232;2023-03-03T02:58:57;42.63;;;30.17;;
21202;SDS011;10759;51.982;9.232;2023-03-03T03:01:26;50.58;;;31.33;;
21202;SDS011;10759;51.982;9.232;2023-03-03T03:03:57;42.35;;;28.92;;
21202;SDS011;10759;51.982;9.232;2023-03-03T03:06:25;45.58;;;28.63;;
21202;SDS011;10759;51.982;9.232;2023-03-03T03:08:53;43.35;;;29.08;;
21202;SDS011;10759;51.982;9.232;2023-03-03T03:11:21;45.25;;;29.75;;
21202;SDS011;10759;51.982;9.232;2023-03-03T03:13:50;45.67;;;31.27;;
21202;SDS011;10759;51.982;9.232;2023-03-03T03:16:19;43.83;;;30.33;;
21202;SDS011;10759;51.982;9.232;2023-03-03T03:18:47;45.17;;;30.17;;
21202;SDS011;10759;51.982;9.232;2023-03-03T03:21:16;47.28;;;30.75;;
21202;SDS011;10759;51.982;9.232;2023-03-03T03:23:45;46.67;;;29.48;;
21202;SDS011;10759;51.982;9.232;2023-03-03T03:26:13;46.10;;;30.75;;
21202;SDS011;10759;51.982;9.232;2023-03-03T03:28:42;41.85;;;28.77;;
21202;SDS011;10759;51.982;9.232;2023-03-03T03:31:11;43.83;;;29.30;;
21202;SDS011;10759;51.982;9.232;2023-03-03T03:33:40;43.58;;;29.55;;
21202;SDS011;10759;51.982;9.232;2023-03-03T03:36:09;45.70;;;29.77;;
21202;SDS011;10759;51.982;9.232;2023-03-03T03:38:38;48.30;;;30.35;;
21202;SDS011;10759;51.982;9.232;2023-03-03T03:41:08;46.35;;;30.92;;
21202;SDS011;10759;51.982;9.232;2023-03-03T03:43:37;39.53;;;28.40;;
21202;SDS011;10759;51.982;9.232;2023-03-03T03:46:05;41.50;;;28.77;;
21202;SDS011;10759;51.982;9.232;2023-03-03T03:48:35;41.50;;;28.35;;
21202;SDS011;10759;51.982;9.232;2023-03-03T03:51:04;44.92;;;29.92;;
21202;SDS011;10759;51.982;9.232;2023-03-03T03:53:33;44.22;;;29.35;;
21202;SDS011;10759;51.982;9.232;2023-03-03T03:56:01;43.53;;;28.83;;
21202;SDS011;10759;51.982;9.232;2023-03-03T03:58:30;48.25;;;30.02;;
21202;SDS011;10759;51.982;9.232;2023-03-03T04:01:02;43.50;;;29.35;;
21202;SDS011;10759;51.982;9.232;2023-03-03T04:03:33;43.88;;;28.05;;
21202;SDS011;10759;51.982;9.232;2023-03-03T04:06:06;48.17;;;30.38;;
21202;SDS011;10759;51.982;9.232;2023-03-03T04:08:34;42.60;;;29.00;;
21202;SDS011;10759;51.982;9.232;2023-03-03T04:11:02;43.33;;;27.75;;
21202;SDS011;10759;51.982;9.232;2023-03-03T04:13:31;41.95;;;28.85;;
21202;SDS011;10759;51.982;9.232;2023-03-03T04:16:03;43.05;;;27.63;;
21202;SDS011;10759;51.982;9.232;2023-03-03T04:18:33;42.78;;;26.65;;
21202;SDS011;10759;51.982;9.232;2023-03-03T04:21:01;40.78;;;27.65;;
21202;SDS011;10759;51.982;9.232;2023-03-03T04:23:32;35.42;;;26.50;;
21202;SDS011;10759;51.982;9.232;2023-03-03T04:28:29;39.40;;;26.10;;
21202;SDS011;10759;51.982;9.232;2023-03-03T04:30:58;39.38;;;26.02;;
21202;SDS011;10759;51.982;9.232;2023-03-03T04:33:28;35.85;;;24.42;;
21202;SDS011;10759;51.982;9.232;2023-03-03T04:35:57;38.22;;;24.63;;
21202;SDS011;10759;51.982;9.232;2023-03-03T04:38:26;35.10;;;24.77;;
21202;SDS011;10759;51.982;9.232;2023-03-03T04:40:56;35.83;;;25.55;;
21202;SDS011;10759;51.982;9.232;2023-03-03T04:43:27;40.17;;;26.65;;
21202;SDS011;10759;51.982;9.232;2023-03-03T04:45:55;39.10;;;25.60;;
21202;SDS011;10759;51.982;9.232;2023-03-03T04:48:24;36.00;;;24.15;;
21202;SDS011;10759;51.982;9.232;2023-03-03T04:50:52;37.45;;;25.48;;
21202;SDS011;10759;51.982;9.232;2023-03-03T04:53:20;31.38;;;24.13;;
21202;SDS011;10759;51.982;9.232;2023-03-03T04:55:48;35.47;;;24.10;;
21202;SDS011;10759;51.982;9.232;2023-03-03T04:58:19;36.30;;;25.60;;
21202;SDS011;10759;51.982;9.232;2023-03-03T05:00:52;39.20;;;25.83;;
21202;SDS011;10759;51.982;9.232;2023-03-03T05:03:20;40.05;;;25.85;;
21202;SDS011;10759;51.982;9.232;2023-03-03T05:05:49;41.33;;;26.73;;
21202;SDS011;10759;51.982;9.232;2023-03-03T05:08:17;40.17;;;25.67;;
21202;SDS011;10759;51.982;9.232;2023-03-03T05:10:45;32.03;;;23.27;;
21202;SDS011;10759;51.982;9.232;2023-03-03T05:13:13;32.63;;;23.25;;
21202;SDS011;10759;51.982;9.232;2023-03-03T05:15:43;35.45;;;23.60;;
21202;SDS011;10759;51.982;9.232;2023-03-03T05:18:16;36.90;;;23.63;;
21202;SDS011;10759;51.982;9.232;2023-03-03T05:20:44;37.75;;;24.65;;
21202;SDS011;10759;51.982;9.232;2023-03-03T05:23:12;31.80;;;23.00;;
21202;SDS011;10759;51.982;9.232;2023-03-03T05:25:40;30.95;;;23.10;;
21202;SDS011;10759;51.982;9.232;2023-03-03T05:28:09;38.33;;;24.40;;
21202;SDS011;10759;51.982;9.232;2023-03-03T05:30:37;35.67;;;23.70;;
21202;SDS011;10759;51.982;9.232;2023-03-03T05:33:06;33.20;;;23.17;;
21202;SDS011;10759;51.982;9.232;2023-03-03T05:35:34;31.25;;;22.48;;
21202;SDS011;10759;51.982;9.232;2023-03-03T05:38:02;31.33;;;21.92;;
21202;SDS011;10759;51.982;9.232;2023-03-03T05:40:30;33.13;;;23.05;;
21202;SDS011;10759;51.982;9.232;2023-03-03T05:42:58;30.73;;;20.92;;
21202;SDS011;10759;51.982;9.232;2023-03-03T05:45:27;33.53;;;21.85;;
21202;SDS011;10759;51.982;9.232;2023-03-03T05:47:54;31.70;;;22.48;;
21202;SDS011;10759;51.982;9.232;2023-03-03T05:50:24;30.30;;;21.52;;
21202;SDS011;10759;51.982;9.232;2023-03-03T05:52:52;32.87;;;21.67;;
21202;SDS011;10759;51.982;9.232;2023-03-03T05:55:19;29.70;;;21.20;;
21202;SDS011;10759;51.982;9.232;2023-03-03T05:57:47;31.13;;;21.13;;
21202;SDS011;10759;51.982;9.232;2023-03-03T06:00:16;31.40;;;21.98;;
21202;SDS011;10759;51.982;9.232;2023-03-03T06:02:44;31.10;;;22.25;;
21202;SDS011;10759;51.982;9.232;2023-03-03T06:05:12;28.92;;;21.13;;
21202;SDS011;10759;51.982;9.232;2023-03-03T06:07:41;33.70;;;21.48;;
21202;SDS011;10759;51.982;9.232;2023-03-03T06:10:10;30.00;;;20.58;;
21202;SDS011;10759;51.982;9.232;2023-03-03T06:15:08;28.63;;;19.73;;
21202;SDS011;10759;51.982;9.232;2023-03-03T06:17:37;26.00;;;19.73;;
21202;SDS011;10759;51.982;9.232;2023-03-03T06:20:05;26.83;;;19.98;;
21202;SDS011;10759;51.982;9.232;2023-03-03T06:22:34;26.60;;;20.15;;
21202;SDS011;10759;51.982;9.232;2023-03-03T06:25:03;26.13;;;19.73;;
21202;SDS011;10759;51.982;9.232;2023-03-03T06:27:32;27.55;;;20.08;;
21202;SDS011;10759;51.982;9.232;2023-03-03T06:30:00;24.70;;;20.60;;
21202;SDS011;10759;51.982;9.232;2023-03-03T06:32:28;28.83;;;20.33;;
21202;SDS011;10759;51.982;9.232;2023-03-03T06:34:56;27.50;;;20.00;;
21202;SDS011;10759;51.982;9.232;2023-03-03T06:37:24;28.17;;;20.17;;
21202;SDS011;10759;51.982;9.232;2023-03-03T06:39:52;30.27;;;20.77;;
21202;SDS011;10759;51.982;9.232;2023-03-03T06:42:21;24.95;;;19.45;;
21202;SDS011;10759;51.982;9.232;2023-03-03T06:44:50;31.77;;;22.00;;
21202;SDS011;10759;51.982;9.232;2023-03-03T06:47:18;29.52;;;21.90;;
21202;SDS011;10759;51.982;9.232;2023-03-03T06:49:46;26.65;;;20.35;;
21202;SDS011;10759;51.982;9.232;2023-03-03T06:52:16;28.63;;;20.65;;
21202;SDS011;10759;51.982;9.232;2023-03-03T06:54:46;24.92;;;18.83;;
21202;SDS011;10759;51.982;9.232;2023-03-03T06:57:15;27.98;;;19.88;;
21202;SDS011;10759;51.982;9.232;2023-03-03T06:59:46;29.88;;;20.95;;
21202;SDS011;10759;51.982;9.232;2023-03-03T07:02:18;30.25;;;20.83;;
21202;SDS011;10759;51.982;9.232;2023-03-03T07:04:48;28.30;;;20.23;;
21202;SDS011;10759;51.982;9.232;2023-03-03T07:07:17;28.13;;;22.23;;
21202;SDS011;10759;51.982;9.232;2023-03-03T07:09:47;28.77;;;21.00;;
21202;SDS011;10759;51.982;9.232;2023-03-03T07:12:17;30.53;;;23.07;;
21202;SDS011;10759;51.982;9.232;2023-03-03T07:14:49;26.50;;;21.05;;
21202;SDS011;10759;51.982;9.232;2023-03-03T07:17:22;28.10;;;19.67;;
21202;SDS011;10759;51.982;9.232;2023-03-03T07:19:51;27.90;;;20.15;;
21202;SDS011;10759;51.982;9.232;2023-03-03T07:22:20;27.92;;;19.90;;
21202;SDS011;10759;51.982;9.232;2023-03-03T07:24:52;27.50;;;20.23;;
21202;SDS011;10759;51.982;9.232;2023-03-03T07:27:23;29.38;;;21.17;;
21202;SDS011;10759;51.982;9.232;2023-03-03T07:29:54;30.02;;;20.95;;
21202;SDS011;10759;51.982;9.232;2023-03-03T07:32:40;30.98;;;20.70;;
21202;SDS011;10759;51.982;9.232;2023-03-03T07:35:18;29.00;;;19.55;;
21202;SDS011;10759;51.982;9.232;2023-03-03T07:37:58;29.65;;;20.58;;
21202;SDS011;10759;51.982;9.232;2023-03-03T07:40:30;30.80;;;21.17;;
21202;SDS011;10759;51.982;9.232;2023-03-03T07:43:14;28.65;;;21.02;;
21202;SDS011;10759;51.982;9.232;2023-03-03T07:46:01;27.50;;;19.80;;
21202;SDS011;10759;51.982;9.232;2023-03-03T07:48:42;28.13;;;20.05;;
21202;SDS011;10759;51.982;9.232;2023-03-03T07:51:12;25.63;;;19.05;;
21202;SDS011;10759;51.982;9.232;2023-03-03T07:53:47;26.67;;;18.92;;
21202;SDS011;10759;51.982;9.232;2023-03-03T07:56:20;30.58;;;20.33;;
21202;SDS011;10759;51.982;9.232;2023-03-03T07:58:53;31.40;;;19.95;;
21202;SDS011;10759;51.982;9.232;2023-03-03T08:01:26;29.73;;;19.83;;
21202;SDS011;10759;51.982;9.232;2023-03-03T08:04:11;29.38;;;19.45;;
21202;SDS011;10759;51.982;9.232;2023-03-03T08:06:50;27.35;;;19.02;;
21202;SDS011;10759;51.982;9.232;2023-03-03T08:09:38;33.40;;;20.65;;
21202;SDS011;10759;51.982;9.232;2023-03-03T08:12:19;30.50;;;19.83;;
21202;SDS011;10759;51.982;9.232;2023-03-03T08:14:55;28.15;;;19.50;;
21202;SDS011;10759;51.982;9.232;2023-03-03T08:17:35;32.33;;;20.33;;
21202;SDS011;10759;51.982;9.232;2023-03-03T08:20:10;27.77;;;19.33;;
21202;SDS011;10759;51.982;9.232;2023-03-03T08:23:05;27.55;;;18.23;;
21202;SDS011;10759;51.982;9.232;2023-03-03T08:25:33;28.02;;;18.73;;
21202;SDS011;10759;51.982;9.232;2023-03-03T08:28:01;24.08;;;18.40;;
21202;SDS011;10759;51.982;9.232;2023-03-03T08:30:28;27.20;;;19.52;;
21202;SDS011;10759;51.982;9.232;2023-03-03T08:32:58;25.10;;;18.38;;
21202;SDS011;10759;51.982;9.232;2023-03-03T08:35:27;27.10;;;17.75;;
21202;SDS011;10759;51.982;9.232;2023-03-03T08:37:55;30.85;;;20.58;;
21202;SDS011;10759;51.982;9.232;2023-03-03T08:40:22;31.15;;;19.60;;
21202;SDS011;10759;51.982;9.232;2023-03-03T08:42:50;28.58;;;20.30;;
21202;SDS011;10759;51.982;9.232;2023-03-03T08:45:19;25.42;;;17.98;;
21202;SDS011;10759;51.982;9.232;2023-03-03T08:47:47;27.77;;;18.77;;
21202;SDS011;10759;51.982;9.232;2023-03-03T08:50:17;25.45;;;18.80;;
21202;SDS011;10759;51.982;9.232;2023-03-03T08:52:45;25.98;;;19.08;;
21202;SDS011;10759;51.982;9.232;2023-03-03T08:55:13;26.17;;;18.77;;
21202;SDS011;10759;51.982;9.232;2023-03-03T08:57:41;24.42;;;18.48;;
21202;SDS011;10759;51.982;9.232;2023-03-03T09:00:10;26.92;;;18.77;;
21202;SDS011;10759;51.982;9.232;2023-03-03T09:02:40;23.88;;;17.58;;
21202;SDS011;10759;51.982;9.232;2023-03-03T09:05:08;25.52;;;18.05;;
21202;SDS011;10759;51.982;9.232;2023-03-03T09:07:39;24.55;;;17.90;;
21202;SDS011;10759;51.982;9.232;2023-03-03T09:10:07;24.65;;;17.98;;
21202;SDS011;10759;51.982;9.232;2023-03-03T09:12:38;28.92;;;19.23;;
21202;SDS011;10759;51.982;9.232;2023-03-03T09:15:12;24.20;;;17.80;;
21202;SDS011;10759;51.982;9.232;2023-03-03T09:17:43;24.40;;;17.63;;
21202;SDS011;10759;51.982;9.232;2023-03-03T09:20:27;23.15;;;17.55;;
21202;SDS011;10759;51.982;9.232;2023-03-03T09:23:00;24.17;;;17.90;;
21202;SDS011;10759;51.982;9.232;2023-03-03T09:25:51;22.20;;;16.50;;
21202;SDS011;10759;51.982;9.232;2023-03-03T09:28:21;23.20;;;17.00;;
21202;SDS011;10759;51.982;9.232;2023-03-03T09:30:52;23.65;;;17.73;;
21202;SDS011;10759;51.982;9.232;2023-03-03T09:33:24;22.67;;;17.15;;
21202;SDS011;10759;51.982;9.232;2023-03-03T09:36:02;23.63;;;18.05;;
21202;SDS011;10759;51.982;9.232;2023-03-03T09:38:46;25.45;;;17.55;;
21202;SDS011;10759;51.982;9.232;2023-03-03T09:41:25;25.98;;;17.73;;
21202;SDS011;10759;51.982;9.232;2023-03-03T09:44:13;22.83;;;17.23;;
21202;SDS011;10759;51.982;9.232;2023-03-03T09:46:57;24.48;;;17.15;;
21202;SDS011;10759;51.982;9.232;2023-03-03T09:49:34;23.55;;;17.98;;
21202;SDS011;10759;51.982;9.232;2023-03-03T09:52:10;23.38;;;17.90;;
21202;SDS011;10759;51.982;9.232;2023-03-03T09:54:53;22.70;;;17.42;;
21202;SDS011;10759;51.982;9.232;2023-03-03T09:57:29;22.27;;;17.23;;
21202;SDS011;10759;51.982;9.232;2023-03-03T10:00:16;24.65;;;17.13;;
21202;SDS011;10759;51.982;9.232;2023-03-03T10:02:56;25.05;;;18.13;;
21202;SDS011;10759;51.982;9.232;2023-03-03T10:05:40;28.45;;;20.75;;
21202;SDS011;10759;51.982;9.232;2023-03-03T10:08:19;27.50;;;19.27;;
21202;SDS011;10759;51.982;9.232;2023-03-03T10:11:01;28.17;;;19.88;;
21202;SDS011;10759;51.982;9.232;2023-03-03T10:13:42;23.38;;;18.38;;
21202;SDS011;10759;51.982;9.232;2023-03-03T10:16:28;24.33;;;17.85;;
21202;SDS011;10759;51.982;9.232;2023-03-03T10:19:10;19.35;;;16.45;;
21202;SDS011;10759;51.982;9.232;2023-03-03T10:21:49;23.05;;;17.13;;
21202;SDS011;10759;51.982;9.232;2023-03-03T10:24:22;20.58;;;16.77;;
21202;SDS011;10759;51.982;9.232;2023-03-03T10:26:59;25.75;;;18.27;;
21202;SDS011;10759;51.982;9.232;2023-03-03T10:29:43;20.75;;;16.83;;
21202;SDS011;10759;51.982;9.232;2023-03-03T10:32:24;24.02;;;18.13;;
21202;SDS011;10759;51.982;9.232;2023-03-03T10:38:06;23.38;;;18.67;;
21202;SDS011;10759;51.982;9.232;2023-03-03T10:40:46;20.83;;;16.55;;
21202;SDS011;10759;51.982;9.232;2023-03-03T10:43:27;23.25;;;16.85;;
21202;SDS011;10759;51.982;9.232;2023-03-03T10:46:16;23.73;;;18.00;;
21202;SDS011;10759;51.982;9.232;2023-03-03T10:49:01;21.67;;;16.55;;
21202;SDS011;10759;51.982;9.232;2023-03-03T10:51:52;22.02;;;16.83;;
21202;SDS011;10759;51.982;9.232;2023-03-03T10:54:41;22.65;;;17.67;;
21202;SDS011;10759;51.982;9.232;2023-03-03T10:57:21;21.55;;;16.67;;
21202;SDS011;10759;51.982;9.232;2023-03-03T10:59:58;23.20;;;17.15;;
21202;SDS011;10759;51.982;9.232;2023-03-03T11:02:36;21.63;;;16.02;;
21202;SDS011;10759;51.982;9.232;2023-03-03T11:05:15;21.35;;;16.17;;
21202;SDS011;10759;51.982;9.232;2023-03-03T11:07:50;17.67;;;15.55;;
21202;SDS011;10759;51.982;9.232;2023-03-03T11:10:24;21.48;;;15.63;;
21202;SDS011;10759;51.982;9.232;2023-03-03T11:13:04;21.17;;;15.77;;
21202;SDS011;10759;51.982;9.232;2023-03-03T11:15:42;21.90;;;16.88;;
21202;SDS011;10759;51.982;9.232;2023-03-03T11:18:20;20.63;;;16.02;;
21202;SDS011;10759;51.982;9.232;2023-03-03T11:21:01;19.27;;;15.38;;
21202;SDS011;10759;51.982;9.232;2023-03-03T11:23:42;19.50;;;14.27;;
21202;SDS011;10759;51.982;9.232;2023-03-03T11:26:23;16.60;;;12.60;;
21202;SDS011;10759;51.982;9.232;2023-03-03T11:31:50;18.65;;;14.68;;
21202;SDS011;10759;51.982;9.232;2023-03-03T11:37:15;17.35;;;14.05;;
21202;SDS011;10759;51.982;9.232;2023-03-03T11:39:48;16.58;;;14.82;;
21202;SDS011;10759;51.982;9.232;2023-03-03T11:42:20;17.45;;;14.85;;
21202;SDS011;10759;51.982;9.232;2023-03-03T11:44:54;16.15;;;14.38;;
21202;SDS011;10759;51.982;9.232;2023-03-03T11:47:28;15.75;;;13.00;;
21202;SDS011;10759;51.982;9.232;2023-03-03T11:50:02;17.50;;;14.38;;
21202;SDS011;10759;51.982;9.232;2023-03-03T11:52:37;17.10;;;13.35;;
21202;SDS011;10759;51.982;9.232;2023-03-03T11:55:14;14.55;;;12.73;;
21202;SDS011;10759;51.982;9.232;2023-03-03T11:57:49;24.00;;;18.05;;
21202;SDS011;10759;51.982;9.232;2023-03-03T12:00:24;16.50;;;13.23;;
21202;SDS011;10759;51.982;9.232;2023-03-03T12:06:10;17.20;;;13.02;;
21202;SDS011;10759;51.982;9.232;2023-03-03T12:11:38;13.85;;;11.85;;
21202;SDS011;10759;51.982;9.232;2023-03-03T12:14:16;14.90;;;11.25;;
21202;SDS011;10759;51.982;9.232;2023-03-03T12:17:07;20.38;;;15.70;;
21202;SDS011;10759;51.982;9.232;2023-03-03T12:19:46;13.30;;;11.85;;
21202;SDS011;10759;51.982;9.232;2023-03-03T12:22:28;12.77;;;10.93;;
21202;SDS011;10759;51.982;9.232;2023-03-03T12:25:03;12.48;;;11.18;;
21202;SDS011;10759;51.982;9.232;2023-03-03T12:27:47;13.07;;;10.85;;
21202;SDS011;10759;51.982;9.232;2023-03-03T12:30:22;12.95;;;10.80;;
21202;SDS011;10759;51.982;9.232;2023-03-03T12:33:12;14.98;;;11.95;;
21202;SDS011;10759;51.982;9.232;2023-03-03T12:36:01;14.88;;;13.38;;
21202;SDS011;10759;51.982;9.232;2023-03-03T12:38:43;14.32;;;12.75;;
21202;SDS011;10759;51.982;9.232;2023-03-03T12:41:20;12.18;;;10.57;;
21202;SDS011;10759;51.982;9.232;2023-03-03T12:43:55;15.27;;;12.30;;
21202;SDS011;10759;51.982;9.232;2023-03-03T12:46:32;11.88;;;10.32;;
21202;SDS011;10759;51.982;9.232;2023-03-03T12:49:09;13.73;;;10.77;;
21202;SDS011;10759;51.982;9.232;2023-03-03T12:51:43;19.45;;;11.60;;
21202;SDS011;10759;51.982;9.232;2023-03-03T12:57:08;14.88;;;12.05;;
21202;SDS011;10759;51.982;9.232;2023-03-03T12:59:44;12.30;;;10.88;;
21202;SDS011;10759;51.982;9.232;2023-03-03T13:02:28;19.55;;;13.60;;
21202;SDS011;10759;51.982;9.232;2023-03-03T13:05:15;14.52;;;11.93;;
21202;SDS011;10759;51.982;9.232;2023-03-03T13:07:52;15.43;;;12.05;;
21202;SDS011;10759;51.982;9.232;2023-03-03T13:10:29;14.32;;;12.80;;
21202;SDS011;10759;51.982;9.232;2023-03-03T13:13:06;14.10;;;12.45;;
21202;SDS011;10759;51.982;9.232;2023-03-03T13:15:40;15.02;;;11.88;;
21202;SDS011;10759;51.982;9.232;2023-03-03T13:18:26;14.18;;;11.70;;
21202;SDS011;10759;51.982;9.232;2023-03-03T13:21:04;13.38;;;10.38;;
21202;SDS011;10759;51.982;9.232;2023-03-03T13:23:42;15.38;;;11.25;;
21202;SDS011;10759;51.982;9.232;2023-03-03T13:26:16;12.82;;;11.02;;
21202;SDS011;10759;51.982;9.232;2023-03-03T13:28:53;13.00;;;11.13;;
21202;SDS011;10759;51.982;9.232;2023-03-03T13:31:28;15.77;;;11.77;;
21202;SDS011;10759;51.982;9.232;2023-03-03T13:34:00;14.65;;;11.38;;
21202;SDS011;10759;51.982;9.232;2023-03-03T13:36:29;14.15;;;12.65;;
21202;SDS011;10759;51.982;9.232;2023-03-03T13:39:09;12.38;;;11.07;;
21202;SDS011;10759;51.982;9.232;2023-03-03T13:41:46;11.40;;;9.70;;
21202;SDS011;10759;51.982;9.232;2023-03-03T13:44:23;14.07;;;10.30;;
21202;SDS011;10759;51.982;9.232;2023-03-03T13:47:05;13.13;;;10.90;;
21202;SDS011;10759;51.982;9.232;2023-03-03T13:49:44;12.07;;;9.73;;
21202;SDS011;10759;51.982;9.232;2023-03-03T13:52:20;13.25;;;9.30;;
21202;SDS011;10759;51.982;9.232;2023-03-03T13:54:52;11.63;;;10.35;;
21202;SDS011;10759;51.982;9.232;2023-03-03T13:57:49;12.70;;;10.60;;
21202;SDS011;10759;51.982;9.232;2023-03-03T14:00:28;12.45;;;11.15;;
21202;SDS011;10759;51.982;9.232;2023-03-03T14:03:10;11.55;;;9.95;;
21202;SDS011;10759;51.982;9.232;2023-03-03T14:05:48;11.68;;;9.90;;
21202;SDS011;10759;51.982;9.232;2023-03-03T14:08:20;11.13;;;9.95;;
21202;SDS011;10759;51.982;9.232;2023-03-03T14:11:01;12.73;;;11.13;;
21202;SDS011;10759;51.982;9.232;2023-03-03T14:13:38;15.60;;;11.05;;
21202;SDS011;10759;51.982;9.232;2023-03-03T14:16:14;12.85;;;10.35;;
21202;SDS011;10759;51.982;9.232;2023-03-03T14:18:52;13.55;;;11.52;;
21202;SDS011;10759;51.982;9.232;2023-03-03T14:21:25;13.90;;;12.02;;
21202;SDS011;10759;51.982;9.232;2023-03-03T14:23:58;13.45;;;11.73;;
21202;SDS011;10759;51.982;9.232;2023-03-03T14:26:45;17.00;;;12.68;;
21202;SDS011;10759;51.982;9.232;2023-03-03T14:29:19;15.15;;;12.85;;
21202;SDS011;10759;51.982;9.232;2023-03-03T14:31:49;17.08;;;13.77;;
21202;SDS011;10759;51.982;9.232;2023-03-03T14:34:25;16.92;;;13.95;;
21202;SDS011;10759;51.982;9.232;2023-03-03T14:37:23;17.13;;;14.35;;
21202;SDS011;10759;51.982;9.232;2023-03-03T14:39:59;15.52;;;12.23;;
21202;SDS011;10759;51.982;9.232;2023-03-03T14:42:36;18.02;;;13.35;;
21202;SDS011;10759;51.982;9.232;2023-03-03T14:45:20;15.82;;;13.80;;
21202;SDS011;10759;51.982;9.232;2023-03-03T14:47:56;15.02;;;12.55;;
21202;SDS011;10759;51.982;9.232;2023-03-03T14:50:30;17.25;;;13.10;;
21202;SDS011;10759;51.982;9.232;2023-03-03T14:55:48;18.55;;;12.98;;
21202;SDS011;10759;51.982;9.232;2023-03-03T14:58:26;18.35;;;13.43;;
21202;SDS011;10759;51.982;9.232;2023-03-03T15:01:06;18.35;;;12.68;;
21202;SDS011;10759;51.982;9.232;2023-03-03T15:03:46;15.63;;;13.07;;
21202;SDS011;10759;51.982;9.232;2023-03-03T15:06:28;19.27;;;14.48;;
21202;SDS011;10759;51.982;9.232;2023-03-03T15:11:51;18.17;;;14.32;;
21202;SDS011;10759;51.982;9.232;2023-03-03T15:14:24;18.73;;;14.25;;
21202;SDS011;10759;51.982;9.232;2023-03-03T15:16:56;19.85;;;14.38;;
21202;SDS011;10759;51.982;9.232;2023-03-03T15:19:35;21.33;;;14.13;;
21202;SDS011;10759;51.982;9.232;2023-03-03T15:22:10;18.10;;;14.70;;
21202;SDS011;10759;51.982;9.232;2023-03-03T15:24:47;17.02;;;13.57;;
21202;SDS011;10759;51.982;9.232;2023-03-03T15:27:24;20.00;;;13.90;;
21202;SDS011;10759;51.982;9.232;2023-03-03T15:30:00;20.40;;;13.68;;
21202;SDS011;10759;51.982;9.232;2023-03-03T15:32:38;19.50;;;13.48;;
21202;SDS011;10759;51.982;9.232;2023-03-03T15:35:20;17.80;;;13.52;;
21202;SDS011;10759;51.982;9.232;2023-03-03T15:37:55;20.88;;;15.00;;